createdAt,value
2023-02-12T00:00:52.926Z,65.37
2023-02-12T00:05:55.541Z,65.33
2023-02-12T00:10:57.112Z,65.40
2023-02-12T00:15:58.803Z,65.40
2023-02-12T00:21:01.265Z,65.68
2023-02-12T00:26:11.203Z,65.27
2023-02-12T00:31:18.618Z,65.76
2023-02-12T00:36:22.679Z,65.61
2023-02-12T00:41:25.102Z,65.70
2023-02-12T00:46:26.641Z,65.61
2023-02-12T00:51:28.009Z,65.69
2023-02-12T00:56:29.339Z,65.40
2023-02-12T01:01:30.821Z,66.01
2023-02-12T01:06:32.221Z,65.58
2023-02-12T01:11:33.580Z,66.11
2023-02-12T01:16:36.555Z,66.93
2023-02-12T01:21:38.194Z,65.93
2023-02-12T01:26:39.600Z,66.13
2023-02-12T01:31:42.274Z,66.04
2023-02-12T01:36:43.803Z,66.12
2023-02-12T01:41:45.763Z,66.33
2023-02-12T01:46:59.044Z,65.98
2023-02-12T01:52:15.700Z,65.75
2023-02-12T01:57:18.197Z,66.17
2023-02-12T02:02:19.731Z,66.55
2023-02-12T02:07:21.085Z,66.52
2023-02-12T02:12:41.348Z,66.48
2023-02-12T02:17:58.188Z,66.25
2023-02-12T02:23:17.699Z,66.75
2023-02-12T02:28:42.563Z,66.31
2023-02-12T02:33:56.404Z,66.53
2023-02-12T02:39:15.809Z,66.18
2023-02-12T02:44:23.355Z,66.20
2023-02-12T02:49:34.568Z,66.01
2023-02-12T02:54:47.537Z,66.47
2023-02-12T03:00:03.972Z,66.01
2023-02-12T03:05:26.693Z,66.40
2023-02-12T03:10:36.617Z,66.12
2023-02-12T03:15:44.576Z,66.24
2023-02-12T03:20:51.513Z,66.03
2023-02-12T03:25:58.731Z,66.34
2023-02-12T03:31:29.370Z,66.50
2023-02-12T03:36:41.286Z,66.13
2023-02-12T03:42:07.418Z,66.31
2023-02-12T03:47:20.717Z,66.44
2023-02-12T03:52:22.380Z,65.89
2023-02-12T03:57:30.593Z,66.58
2023-02-12T04:02:32.383Z,66.33
2023-02-12T04:07:36.731Z,66.38
2023-02-12T04:12:43.868Z,66.37
2023-02-12T04:18:02.584Z,66.46
2023-02-12T04:23:29.851Z,66.49
2023-02-12T04:28:42.920Z,66.69
2023-02-12T04:34:03.744Z,66.39
2023-02-12T04:39:11.163Z,66.69
2023-02-12T04:44:23.670Z,66.38
2023-02-12T04:49:25.545Z,66.60
2023-02-12T04:54:26.958Z,66.41
2023-02-12T04:59:28.412Z,66.71
2023-02-12T05:04:29.743Z,66.47
2023-02-12T05:09:31.090Z,66.85
2023-02-12T05:14:32.421Z,66.42
2023-02-12T05:19:33.767Z,66.82
2023-02-12T05:24:35.181Z,66.54
2023-02-12T05:29:36.694Z,66.88
2023-02-12T05:34:38.166Z,66.65
2023-02-12T05:39:39.610Z,67.06
2023-02-12T05:44:40.946Z,66.49
2023-02-12T05:49:42.817Z,66.63
2023-02-12T05:54:44.211Z,66.67
2023-02-12T05:59:45.608Z,66.80
2023-02-12T06:04:48.597Z,66.64
2023-02-12T06:09:50.607Z,66.96
2023-02-12T06:14:51.966Z,66.63
2023-02-12T06:19:53.269Z,66.60
2023-02-12T06:24:54.618Z,66.42
2023-02-12T06:29:55.963Z,66.89
2023-02-12T06:34:57.335Z,66.35
2023-02-12T06:39:58.677Z,66.26
2023-02-12T06:45:00.008Z,66.45
2023-02-12T06:50:01.410Z,66.40
2023-02-12T06:55:02.848Z,66.77
2023-02-12T07:00:04.945Z,67.24
2023-02-12T07:05:06.554Z,67.72
2023-02-12T07:10:08.700Z,67.87
2023-02-12T07:15:11.019Z,68.20
2023-02-12T07:20:12.826Z,68.36
2023-02-12T07:25:14.486Z,67.99
2023-02-12T07:30:16.033Z,68.52
2023-02-12T07:35:17.437Z,68.35
2023-02-12T07:40:18.839Z,68.35
2023-02-12T07:45:20.177Z,68.39
2023-02-12T07:50:21.683Z,68.71
2023-02-12T07:55:23.089Z,68.78
2023-02-12T08:00:24.604Z,68.96
2023-02-12T08:05:27.800Z,68.90
2023-02-12T08:10:32.271Z,68.95
2023-02-12T08:15:33.777Z,69.30
2023-02-12T08:20:35.151Z,69.15
2023-02-12T08:25:36.542Z,68.90
2023-02-12T08:30:37.987Z,69.16
2023-02-12T08:35:39.350Z,68.89
2023-02-12T08:40:43.015Z,68.91
2023-02-12T08:45:44.518Z,69.02
2023-02-12T08:50:46.554Z,69.03
2023-02-12T08:55:49.704Z,68.98
2023-02-12T09:00:51.160Z,68.87
2023-02-12T09:05:53.024Z,68.66
2023-02-12T09:10:54.445Z,68.78
2023-02-12T09:15:56.332Z,68.48
2023-02-12T09:21:07.453Z,68.37
2023-02-12T09:26:11.816Z,68.46
2023-02-12T09:31:15.717Z,68.44
2023-02-12T09:36:17.445Z,68.23
2023-02-12T09:41:46.518Z,68.08
2023-02-12T09:46:59.979Z,67.86
2023-02-12T09:52:02.832Z,67.96
2023-02-12T09:57:14.189Z,67.96
2023-02-12T10:02:17.865Z,67.81
2023-02-12T10:07:47.077Z,67.74
2023-02-12T10:12:57.634Z,67.56
2023-02-12T10:18:20.104Z,67.40
2023-02-12T10:23:59.700Z,66.94
2023-02-12T10:29:36.950Z,66.82
2023-02-12T10:34:41.212Z,66.67
2023-02-12T10:39:48.775Z,66.38
2023-02-12T10:44:50.070Z,66.71
2023-02-12T10:49:59.743Z,66.32
2023-02-12T10:55:01.615Z,66.19
2023-02-12T11:00:26.927Z,66.57
2023-02-12T11:05:30.922Z,66.21
2023-02-12T11:10:38.571Z,65.81
2023-02-12T11:15:48.742Z,65.65
2023-02-12T11:20:52.565Z,66.07
2023-02-12T11:26:00.248Z,65.77
2023-02-12T11:31:23.831Z,65.91
2023-02-12T11:36:27.514Z,65.86
2023-02-12T11:41:39.548Z,65.63
2023-02-12T11:46:49.710Z,65.44
2023-02-12T11:51:51.868Z,64.92
2023-02-12T11:56:55.282Z,64.55
2023-02-12T12:02:01.598Z,63.89
2023-02-12T12:07:13.857Z,64.13
2023-02-12T12:12:53.049Z,63.62
2023-02-12T12:18:17.554Z,63.44
2023-02-12T12:23:24.018Z,63.10
2023-02-12T12:28:41.260Z,62.79
2023-02-12T12:34:03.341Z,62.63
2023-02-12T12:39:21.409Z,62.28
2023-02-12T12:44:35.531Z,62.15
2023-02-12T12:50:08.470Z,61.70
2023-02-12T12:55:31.664Z,61.80
2023-02-12T13:00:33.035Z,61.46
2023-02-12T13:05:53.443Z,60.87
2023-02-12T13:11:06.379Z,61.20
2023-02-12T13:16:16.634Z,61.36
2023-02-12T13:21:27.147Z,61.31
2023-02-12T13:26:42.814Z,60.87
2023-02-12T13:31:58.033Z,60.53
2023-02-12T13:37:06.619Z,60.64
2023-02-12T13:42:07.969Z,60.62
2023-02-12T13:47:48.087Z,60.51
2023-02-12T13:52:59.597Z,60.41
2023-02-12T13:58:34.883Z,60.18
2023-02-12T14:03:38.000Z,59.93
2023-02-12T14:08:42.387Z,60.11
2023-02-12T14:13:56.348Z,59.99
2023-02-12T14:19:35.460Z,59.83
2023-02-12T14:24:36.797Z,60.00
2023-02-12T14:29:38.146Z,59.90
2023-02-12T14:34:39.589Z,59.85
2023-02-12T14:39:41.108Z,59.54
2023-02-12T14:44:46.792Z,59.44
2023-02-12T14:49:55.636Z,59.41
2023-02-12T14:55:18.158Z,59.41
2023-02-12T15:00:32.294Z,59.20
2023-02-12T15:05:41.523Z,59.84
2023-02-12T15:10:49.740Z,59.67
2023-02-12T15:16:22.049Z,59.88
2023-02-12T15:21:27.850Z,59.88
2023-02-12T15:26:33.284Z,59.89
2023-02-12T15:31:35.301Z,59.84
2023-02-12T15:36:37.983Z,60.27
2023-02-12T15:41:40.361Z,60.26
2023-02-12T15:46:53.502Z,60.37
2023-02-12T15:51:56.429Z,60.79
2023-02-12T15:56:58.197Z,60.78
2023-02-12T16:02:03.278Z,61.17
2023-02-12T16:07:04.790Z,61.73
2023-02-12T16:12:12.170Z,62.43
2023-02-12T16:17:21.176Z,62.29
2023-02-12T16:22:27.321Z,62.43
2023-02-12T16:27:31.500Z,62.50
2023-02-12T16:32:38.920Z,62.96
2023-02-12T16:37:44.018Z,63.15
2023-02-12T16:42:48.454Z,63.40
2023-02-12T16:47:51.161Z,63.19
2023-02-12T16:53:03.281Z,63.71
2023-02-12T16:58:04.631Z,63.41
2023-02-12T17:03:06.037Z,63.40
2023-02-12T17:08:16.030Z,64.04
2023-02-12T17:13:18.107Z,63.89
2023-02-12T17:18:20.314Z,64.21
2023-02-12T17:23:22.794Z,64.29
2023-02-12T17:28:25.345Z,64.51
2023-02-12T17:33:27.613Z,64.43
2023-02-12T17:38:29.019Z,64.34
2023-02-12T17:43:30.344Z,64.92
2023-02-12T17:48:31.848Z,64.65
2023-02-12T17:53:33.180Z,65.18
2023-02-12T17:58:34.537Z,65.22
2023-02-12T18:03:36.355Z,64.95
2023-02-12T18:08:37.696Z,65.04
2023-02-12T18:13:39.466Z,65.73
2023-02-12T18:18:40.988Z,65.38
2023-02-12T18:23:42.973Z,65.47
2023-02-12T18:28:45.243Z,66.28
2023-02-12T18:33:46.703Z,65.73
2023-02-12T18:38:49.765Z,65.96
2023-02-12T18:43:51.618Z,65.76
2023-02-12T18:48:53.857Z,66.40
2023-02-12T18:54:05.272Z,66.04
2023-02-12T18:59:08.106Z,66.17
2023-02-12T19:04:12.637Z,66.18
2023-02-12T19:09:16.589Z,65.94
2023-02-12T19:14:19.480Z,66.12
2023-02-12T19:19:21.644Z,66.42
2023-02-12T19:24:23.100Z,66.28
2023-02-12T19:29:24.777Z,66.75
2023-02-12T19:34:27.149Z,66.65
2023-02-12T19:39:28.752Z,66.75
2023-02-12T19:44:30.093Z,66.54
2023-02-12T19:49:31.517Z,66.75
2023-02-12T19:54:32.964Z,66.40
2023-02-12T19:59:35.347Z,66.73
2023-02-12T20:04:36.849Z,66.52
2023-02-12T20:09:38.493Z,67.02
2023-02-12T20:14:39.812Z,66.75
2023-02-12T20:19:41.147Z,66.75
2023-02-12T20:24:42.565Z,66.85
2023-02-12T20:29:43.961Z,66.84
2023-02-12T20:34:50.827Z,66.92
2023-02-12T20:39:52.628Z,66.67
2023-02-12T20:44:53.999Z,66.59
2023-02-12T20:49:56.683Z,67.09
2023-02-12T20:54:58.262Z,67.13
2023-02-12T20:59:59.603Z,67.13
2023-02-12T21:05:00.967Z,66.79
2023-02-12T21:10:02.291Z,66.56
2023-02-12T21:15:03.929Z,66.68
2023-02-12T21:20:07.083Z,67.06
2023-02-12T21:25:08.450Z,67.07
2023-02-12T21:30:10.137Z,66.56
2023-02-12T21:35:11.606Z,66.74
2023-02-12T21:40:13.115Z,66.63
2023-02-12T21:45:19.038Z,66.97
2023-02-12T21:50:20.946Z,66.93
2023-02-12T21:55:22.322Z,66.97
2023-02-12T22:00:23.743Z,67.15
2023-02-12T22:05:25.219Z,66.74
2023-02-12T22:10:27.757Z,66.78
2023-02-12T22:15:29.130Z,66.95
2023-02-12T22:20:30.492Z,66.94
2023-02-12T22:25:33.395Z,66.79
2023-02-12T22:30:34.753Z,67.10
2023-02-12T22:35:36.115Z,66.87
2023-02-12T22:40:37.554Z,66.92
2023-02-12T22:45:43.563Z,66.43
2023-02-12T22:50:44.942Z,66.56
2023-02-12T22:55:46.307Z,66.54
2023-02-12T23:00:47.685Z,66.45
2023-02-12T23:05:48.998Z,66.53
2023-02-12T23:10:50.385Z,66.64
2023-02-12T23:15:51.923Z,67.04
2023-02-12T23:20:53.832Z,66.96
2023-02-12T23:25:55.544Z,66.93
2023-02-12T23:30:57.385Z,66.50
2023-02-12T23:35:59.192Z,66.92
2023-02-12T23:41:00.954Z,66.94
2023-02-12T23:46:02.473Z,66.91
2023-02-12T23:51:04.381Z,66.67
2023-02-12T23:56:06.797Z,66.46
